Terminal Aerodrome Forecast
Issued by NWS Lake Charles, LA

Home | Current Version | Previous Version | Text Only | Print | Product List | Glossary On
Versions: 1 2 3 4 5 6 7 8 9 10 11 12 13 14 15 16 17 18 19 20
000
FTUS44 KLCH 270520
TAFLCH
TAF
KLCH 270520Z 2706/2806 VRB03KT P6SM SKC
     FM271400 15006KT P6SM OVC050
      TEMPO 2714/2717 VRB15G35KT 3SM TSRA BKN025CB
     FM271700 17008KT P6SM OVC050 PROB30 2719/2723 TS BKN035CB
     FM280500 13004KT P6SM OVC025=

USA.gov is the U.S. government's official web portal to all federal, state and local government web resources and services.